sensor_id;sensor_type;location;lat;lon;timestamp;pressure;altitude;pressure_sealevel;temperature;humidity
59367;BME280;45163;47.690;11.770;2024-03-29T00:01:16;92152.06;;;1.77;100.00
59367;BME280;45163;47.690;11.770;2024-03-29T00:03:42;92140.16;;;1.74;100.00
59367;BME280;45163;47.690;11.770;2024-03-29T00:06:09;92146.13;;;1.35;100.00
59367;BME280;45163;47.690;11.770;2024-03-29T00:08:35;92136.47;;;1.07;100.00
59367;BME280;45163;47.690;11.770;2024-03-29T00:11:01;92139.25;;;1.00;100.00
59367;BME280;45163;47.690;11.770;2024-03-29T00:13:27;92139.44;;;0.86;100.00
59367;BME280;45163;47.690;11.770;2024-03-29T00:15:53;92139.84;;;0.84;100.00
59367;BME280;45163;47.690;11.770;2024-03-29T00:18:18;92156.78;;;0.78;100.00
59367;BME280;45163;47.690;11.770;2024-03-29T00:20:44;92149.38;;;0.89;100.00
59367;BME280;45163;47.690;11.770;2024-03-29T00:23:10;92151.84;;;1.07;100.00
59367;BME280;45163;47.690;11.770;2024-03-29T00:25:36;92133.03;;;1.07;100.00
59367;BME280;45163;47.690;11.770;2024-03-29T00:28:02;92124.78;;;1.21;100.00
59367;BME280;45163;47.690;11.770;2024-03-29T00:30:29;92113.19;;;1.28;100.00
59367;BME280;45163;47.690;11.770;2024-03-29T00:32:55;92114.75;;;1.25;100.00
59367;BME280;45163;47.690;11.770;2024-03-29T00:35:21;92120.50;;;0.96;100.00
59367;BME280;45163;47.690;11.770;2024-03-29T00:37:49;92118.38;;;1.11;100.00
59367;BME280;45163;47.690;11.770;2024-03-29T00:40:16;92113.31;;;1.17;100.00
59367;BME280;45163;47.690;11.770;2024-03-29T00:42:42;92110.91;;;1.26;100.00
59367;BME280;45163;47.690;11.770;2024-03-29T00:45:08;92117.19;;;1.16;100.00
59367;BME280;45163;47.690;11.770;2024-03-29T00:47:34;92126.09;;;1.09;100.00
59367;BME280;45163;47.690;11.770;2024-03-29T00:50:00;92122.84;;;1.52;100.00
59367;BME280;45163;47.690;11.770;2024-03-29T00:52:26;92117.78;;;1.81;100.00
59367;BME280;45163;47.690;11.770;2024-03-29T00:54:52;92119.59;;;1.64;100.00
59367;BME280;45163;47.690;11.770;2024-03-29T00:57:18;92110.56;;;1.51;100.00
59367;BME280;45163;47.690;11.770;2024-03-29T00:59:44;92102.19;;;1.45;100.00
59367;BME280;45163;47.690;11.770;2024-03-29T01:02:10;92097.72;;;1.35;100.00
59367;BME280;45163;47.690;11.770;2024-03-29T01:04:36;92090.34;;;1.12;100.00
59367;BME280;45163;47.690;11.770;2024-03-29T01:07:04;92080.63;;;1.49;100.00
59367;BME280;45163;47.690;11.770;2024-03-29T01:09:30;92076.47;;;1.17;100.00
59367;BME280;45163;47.690;11.770;2024-03-29T01:11:56;92078.53;;;1.06;100.00
59367;BME280;45163;47.690;11.770;2024-03-29T01:14:21;92069.84;;;1.26;100.00
59367;BME280;45163;47.690;11.770;2024-03-29T01:16:47;92072.03;;;1.34;100.00
59367;BME280;45163;47.690;11.770;2024-03-29T01:19:13;92070.34;;;1.44;100.00
59367;BME280;45163;47.690;11.770;2024-03-29T01:21:39;92062.88;;;1.79;100.00
59367;BME280;45163;47.690;11.770;2024-03-29T01:24:05;92051.34;;;2.02;100.00
59367;BME280;45163;47.690;11.770;2024-03-29T01:26:31;92054.09;;;1.74;100.00
59367;BME280;45163;47.690;11.770;2024-03-29T01:28:57;92054.81;;;1.55;100.00
59367;BME280;45163;47.690;11.770;2024-03-29T01:31:23;92047.34;;;1.63;100.00
59367;BME280;45163;47.690;11.770;2024-03-29T01:33:50;92032.94;;;1.77;100.00
59367;BME280;45163;47.690;11.770;2024-03-29T01:36:16;92032.47;;;1.58;100.00
59367;BME280;45163;47.690;11.770;2024-03-29T01:38:42;92016.03;;;1.53;100.00
59367;BME280;45163;47.690;11.770;2024-03-29T01:41:11;92016.63;;;1.40;100.00
59367;BME280;45163;47.690;11.770;2024-03-29T01:43:38;91999.50;;;1.31;100.00
59367;BME280;45163;47.690;11.770;2024-03-29T01:46:05;91998.94;;;1.16;100.00
59367;BME280;45163;47.690;11.770;2024-03-29T01:48:33;91982.47;;;1.14;100.00
59367;BME280;45163;47.690;11.770;2024-03-29T01:51:00;91980.69;;;1.04;100.00
59367;BME280;45163;47.690;11.770;2024-03-29T01:53:27;91975.81;;;0.95;100.00
59367;BME280;45163;47.690;11.770;2024-03-29T01:55:54;91973.13;;;0.71;100.00
59367;BME280;45163;47.690;11.770;2024-03-29T01:58:20;91962.63;;;0.81;100.00
59367;BME280;45163;47.690;11.770;2024-03-29T02:01:07;91951.66;;;0.95;100.00
59367;BME280;45163;47.690;11.770;2024-03-29T02:03:33;91949.91;;;1.08;100.00
59367;BME280;45163;47.690;11.770;2024-03-29T02:06:00;91942.88;;;1.18;100.00
59367;BME280;45163;47.690;11.770;2024-03-29T02:08:28;91940.16;;;1.41;100.00
59367;BME280;45163;47.690;11.770;2024-03-29T02:10:54;91931.75;;;1.83;100.00
59367;BME280;45163;47.690;11.770;2024-03-29T02:13:21;91940.91;;;2.45;100.00
59367;BME280;45163;47.690;11.770;2024-03-29T02:15:47;91945.19;;;2.42;100.00
59367;BME280;45163;47.690;11.770;2024-03-29T02:18:13;91946.84;;;2.56;100.00
59367;BME280;45163;47.690;11.770;2024-03-29T02:20:39;91936.19;;;2.69;100.00
59367;BME280;45163;47.690;11.770;2024-03-29T02:23:16;91943.28;;;2.79;100.00
59367;BME280;45163;47.690;11.770;2024-03-29T02:25:44;91942.16;;;2.60;100.00
59367;BME280;45163;47.690;11.770;2024-03-29T02:28:10;91931.78;;;2.59;100.00
59367;BME280;45163;47.690;11.770;2024-03-29T02:30:35;91940.72;;;2.56;100.00
59367;BME280;45163;47.690;11.770;2024-03-29T02:33:01;91938.59;;;2.47;100.00
59367;BME280;45163;47.690;11.770;2024-03-29T02:35:29;91943.06;;;2.34;100.00
59367;BME280;45163;47.690;11.770;2024-03-29T02:37:55;91939.97;;;2.35;100.00
59367;BME280;45163;47.690;11.770;2024-03-29T02:40:21;91940.88;;;2.29;100.00
59367;BME280;45163;47.690;11.770;2024-03-29T02:42:50;91933.16;;;2.67;100.00
59367;BME280;45163;47.690;11.770;2024-03-29T02:45:16;91945.97;;;2.43;100.00
59367;BME280;45163;47.690;11.770;2024-03-29T02:47:42;91948.06;;;2.71;100.00
59367;BME280;45163;47.690;11.770;2024-03-29T02:50:10;91945.97;;;2.79;100.00
59367;BME280;45163;47.690;11.770;2024-03-29T02:52:36;91935.13;;;2.83;100.00
59367;BME280;45163;47.690;11.770;2024-03-29T02:55:03;91913.53;;;2.66;100.00
59367;BME280;45163;47.690;11.770;2024-03-29T02:57:29;91904.91;;;3.08;100.00
59367;BME280;45163;47.690;11.770;2024-03-29T02:59:55;91916.88;;;3.23;100.00
59367;BME280;45163;47.690;11.770;2024-03-29T03:02:21;91930.94;;;3.14;100.00
59367;BME280;45163;47.690;11.770;2024-03-29T03:04:47;91933.78;;;2.91;100.00
59367;BME280;45163;47.690;11.770;2024-03-29T03:07:13;91932.66;;;2.72;100.00
59367;BME280;45163;47.690;11.770;2024-03-29T03:09:57;91932.81;;;2.65;100.00
59367;BME280;45163;47.690;11.770;2024-03-29T03:12:43;91936.94;;;2.69;100.00
59367;BME280;45163;47.690;11.770;2024-03-29T03:15:09;91931.31;;;2.96;100.00
59367;BME280;45163;47.690;11.770;2024-03-29T03:17:34;91933.28;;;3.12;100.00
59367;BME280;45163;47.690;11.770;2024-03-29T03:20:00;91927.03;;;2.99;100.00
59367;BME280;45163;47.690;11.770;2024-03-29T03:22:26;91932.31;;;2.70;100.00
59367;BME280;45163;47.690;11.770;2024-03-29T03:24:52;91928.75;;;2.57;100.00
59367;BME280;45163;47.690;11.770;2024-03-29T03:27:18;91922.75;;;2.49;100.00
59367;BME280;45163;47.690;11.770;2024-03-29T03:29:45;91919.44;;;2.41;100.00
59367;BME280;45163;47.690;11.770;2024-03-29T03:32:11;91928.38;;;2.18;100.00
59367;BME280;45163;47.690;11.770;2024-03-29T03:34:37;91924.94;;;1.98;100.00
59367;BME280;45163;47.690;11.770;2024-03-29T03:37:03;91934.09;;;2.00;100.00
59367;BME280;45163;47.690;11.770;2024-03-29T03:39:29;91931.06;;;1.98;100.00
59367;BME280;45163;47.690;11.770;2024-03-29T03:41:55;91934.47;;;2.03;100.00
59367;BME280;45163;47.690;11.770;2024-03-29T03:44:21;91924.03;;;2.05;100.00
59367;BME280;45163;47.690;11.770;2024-03-29T03:46:49;91923.31;;;2.40;100.00
59367;BME280;45163;47.690;11.770;2024-03-29T03:49:15;91904.78;;;2.79;100.00
59367;BME280;45163;47.690;11.770;2024-03-29T03:51:41;91894.84;;;2.59;100.00
59367;BME280;45163;47.690;11.770;2024-03-29T03:54:08;91885.06;;;2.49;100.00
59367;BME280;45163;47.690;11.770;2024-03-29T03:56:34;91878.34;;;2.21;100.00
59367;BME280;45163;47.690;11.770;2024-03-29T03:59:00;91870.91;;;2.09;100.00
59367;BME280;45163;47.690;11.770;2024-03-29T04:01:25;91875.13;;;2.10;100.00
59367;BME280;45163;47.690;11.770;2024-03-29T04:04:04;91888.53;;;2.30;100.00
59367;BME280;45163;47.690;11.770;2024-03-29T04:06:30;91898.84;;;2.15;100.00
59367;BME280;45163;47.690;11.770;2024-03-29T04:08:56;91906.25;;;2.11;100.00
59367;BME280;45163;47.690;11.770;2024-03-29T04:11:22;91904.31;;;1.91;100.00
59367;BME280;45163;47.690;11.770;2024-03-29T04:13:48;91907.47;;;1.86;100.00
59367;BME280;45163;47.690;11.770;2024-03-29T04:16:13;91911.84;;;1.80;100.00
59367;BME280;45163;47.690;11.770;2024-03-29T04:18:39;91895.38;;;1.55;100.00
59367;BME280;45163;47.690;11.770;2024-03-29T04:21:05;91887.25;;;1.58;100.00
59367;BME280;45163;47.690;11.770;2024-03-29T04:23:31;91903.91;;;1.49;100.00
59367;BME280;45163;47.690;11.770;2024-03-29T04:25:59;91891.78;;;1.41;100.00
59367;BME280;45163;47.690;11.770;2024-03-29T04:28:26;91876.25;;;1.29;100.00
59367;BME280;45163;47.690;11.770;2024-03-29T04:30:55;91883.22;;;1.03;100.00
59367;BME280;45163;47.690;11.770;2024-03-29T04:33:22;91876.13;;;1.13;100.00
59367;BME280;45163;47.690;11.770;2024-03-29T04:35:56;91868.75;;;0.97;100.00
59367;BME280;45163;47.690;11.770;2024-03-29T04:38:22;91879.59;;;0.90;100.00
59367;BME280;45163;47.690;11.770;2024-03-29T04:40:53;91898.09;;;1.08;100.00
59367;BME280;45163;47.690;11.770;2024-03-29T04:43:24;91875.38;;;1.36;100.00
59367;BME280;45163;47.690;11.770;2024-03-29T04:46:13;91883.31;;;1.43;100.00
59367;BME280;45163;47.690;11.770;2024-03-29T04:48:40;91876.59;;;1.31;100.00
59367;BME280;45163;47.690;11.770;2024-03-29T04:51:11;91881.94;;;1.35;100.00
59367;BME280;45163;47.690;11.770;2024-03-29T04:53:38;91882.50;;;1.66;100.00
59367;BME280;45163;47.690;11.770;2024-03-29T04:56:05;91876.84;;;2.00;100.00
59367;BME280;45163;47.690;11.770;2024-03-29T04:58:31;91875.88;;;2.46;100.00
59367;BME280;45163;47.690;11.770;2024-03-29T05:00:57;91868.22;;;2.45;100.00
59367;BME280;45163;47.690;11.770;2024-03-29T05:03:23;91875.19;;;2.42;100.00
59367;BME280;45163;47.690;11.770;2024-03-29T05:05:50;91878.00;;;2.55;100.00
59367;BME280;45163;47.690;11.770;2024-03-29T05:08:17;91874.34;;;2.45;100.00
59367;BME280;45163;47.690;11.770;2024-03-29T05:10:45;91884.63;;;2.34;100.00
59367;BME280;45163;47.690;11.770;2024-03-29T05:13:11;91895.50;;;2.47;100.00
59367;BME280;45163;47.690;11.770;2024-03-29T05:15:37;91904.28;;;2.31;100.00
59367;BME280;45163;47.690;11.770;2024-03-29T05:18:03;91899.03;;;2.44;100.00
59367;BME280;45163;47.690;11.770;2024-03-29T05:20:30;91889.63;;;2.68;100.00
59367;BME280;45163;47.690;11.770;2024-03-29T05:22:58;91903.38;;;3.23;100.00
59367;BME280;45163;47.690;11.770;2024-03-29T05:25:24;91902.28;;;3.04;100.00
59367;BME280;45163;47.690;11.770;2024-03-29T05:27:50;91903.28;;;2.78;100.00
59367;BME280;45163;47.690;11.770;2024-03-29T05:30:16;91898.66;;;2.94;100.00
59367;BME280;45163;47.690;11.770;2024-03-29T05:32:43;91896.66;;;3.15;100.00
59367;BME280;45163;47.690;11.770;2024-03-29T05:35:10;91885.84;;;3.47;100.00
59367;BME280;45163;47.690;11.770;2024-03-29T05:37:36;91879.97;;;3.94;100.00
59367;BME280;45163;47.690;11.770;2024-03-29T05:40:04;91870.59;;;4.54;100.00
59367;BME280;45163;47.690;11.770;2024-03-29T05:42:32;91886.66;;;4.32;100.00
59367;BME280;45163;47.690;11.770;2024-03-29T05:45:04;91883.16;;;4.06;100.00
59367;BME280;45163;47.690;11.770;2024-03-29T05:47:31;91872.69;;;3.79;100.00
59367;BME280;45163;47.690;11.770;2024-03-29T05:49:57;91882.94;;;3.84;100.00
59367;BME280;45163;47.690;11.770;2024-03-29T05:52:23;91879.97;;;3.94;100.00
59367;BME280;45163;47.690;11.770;2024-03-29T05:54:49;91886.44;;;3.97;100.00
59367;BME280;45163;47.690;11.770;2024-03-29T05:57:16;91873.63;;;4.14;100.00
59367;BME280;45163;47.690;11.770;2024-03-29T05:59:42;91861.78;;;4.24;100.00
59367;BME280;45163;47.690;11.770;2024-03-29T06:02:07;91870.78;;;4.34;100.00
59367;BME280;45163;47.690;11.770;2024-03-29T06:04:33;91871.78;;;4.53;100.00
59367;BME280;45163;47.690;11.770;2024-03-29T06:07:00;91881.06;;;4.52;100.00
59367;BME280;45163;47.690;11.770;2024-03-29T06:09:26;91880.41;;;4.35;100.00
59367;BME280;45163;47.690;11.770;2024-03-29T06:11:56;91873.44;;;4.21;100.00
59367;BME280;45163;47.690;11.770;2024-03-29T06:14:23;91886.19;;;4.20;100.00
59367;BME280;45163;47.690;11.770;2024-03-29T06:17:20;91892.94;;;3.99;100.00
59367;BME280;45163;47.690;11.770;2024-03-29T06:19:53;91893.41;;;4.53;100.00
59367;BME280;45163;47.690;11.770;2024-03-29T06:22:23;91891.09;;;6.10;100.00
59367;BME280;45163;47.690;11.770;2024-03-29T06:24:50;91893.69;;;7.38;100.00
59367;BME280;45163;47.690;11.770;2024-03-29T06:27:18;91877.34;;;8.24;100.00
59367;BME280;45163;47.690;11.770;2024-03-29T06:29:44;91875.69;;;9.87;100.00
59367;BME280;45163;47.690;11.770;2024-03-29T06:32:10;91878.78;;;11.02;100.00
59367;BME280;45163;47.690;11.770;2024-03-29T06:34:36;91856.72;;;11.90;100.00
59367;BME280;45163;47.690;11.770;2024-03-29T06:37:02;91846.53;;;13.15;100.00
59367;BME280;45163;47.690;11.770;2024-03-29T06:39:29;91849.56;;;14.52;100.00
59367;BME280;45163;47.690;11.770;2024-03-29T06:41:55;91841.97;;;14.30;100.00
59367;BME280;45163;47.690;11.770;2024-03-29T06:44:21;91833.34;;;14.65;97.00
59367;BME280;45163;47.690;11.770;2024-03-29T06:46:47;91837.25;;;14.36;100.00
59367;BME280;45163;47.690;11.770;2024-03-29T06:49:13;91842.19;;;14.20;99.12
59367;BME280;45163;47.690;11.770;2024-03-29T06:51:39;91844.41;;;15.66;86.18
59367;BME280;45163;47.690;11.770;2024-03-29T06:54:06;91836.81;;;16.00;79.91
59367;BME280;45163;47.690;11.770;2024-03-29T06:56:32;91841.63;;;15.77;75.09
59367;BME280;45163;47.690;11.770;2024-03-29T06:58:58;91857.09;;;14.68;77.90
59367;BME280;45163;47.690;11.770;2024-03-29T07:01:24;91831.69;;;14.13;77.46
59367;BME280;45163;47.690;11.770;2024-03-29T07:04:03;91840.41;;;14.94;72.19
59367;BME280;45163;47.690;11.770;2024-03-29T07:06:29;91831.94;;;14.15;72.53
59367;BME280;45163;47.690;11.770;2024-03-29T07:08:55;91822.16;;;13.98;73.18
59367;BME280;45163;47.690;11.770;2024-03-29T07:11:21;91824.88;;;15.75;67.70
59367;BME280;45163;47.690;11.770;2024-03-29T07:13:46;91829.56;;;15.91;69.95
59367;BME280;45163;47.690;11.770;2024-03-29T07:16:12;91851.75;;;16.80;60.68
59367;BME280;45163;47.690;11.770;2024-03-29T07:18:38;91824.50;;;14.27;63.68
59367;BME280;45163;47.690;11.770;2024-03-29T07:21:04;91846.91;;;15.30;67.86
59367;BME280;45163;47.690;11.770;2024-03-29T07:23:30;91849.63;;;15.08;65.89
59367;BME280;45163;47.690;11.770;2024-03-29T07:26:04;91830.75;;;16.13;60.45
59367;BME280;45163;47.690;11.770;2024-03-29T07:28:31;91823.22;;;17.73;56.11
59367;BME280;45163;47.690;11.770;2024-03-29T07:30:57;91855.78;;;17.20;57.72
59367;BME280;45163;47.690;11.770;2024-03-29T07:33:24;91844.16;;;15.30;56.88
59367;BME280;45163;47.690;11.770;2024-03-29T07:35:53;91846.97;;;14.26;62.52
59367;BME280;45163;47.690;11.770;2024-03-29T07:38:20;91853.25;;;14.43;73.61
59367;BME280;45163;47.690;11.770;2024-03-29T07:40:50;91858.38;;;15.45;64.96
59367;BME280;45163;47.690;11.770;2024-03-29T07:43:16;91857.59;;;16.59;69.05
59367;BME280;45163;47.690;11.770;2024-03-29T07:45:43;91851.75;;;16.85;54.97
59367;BME280;45163;47.690;11.770;2024-03-29T07:48:12;91870.88;;;15.97;61.39
59367;BME280;45163;47.690;11.770;2024-03-29T07:50:42;91874.41;;;17.08;54.17
59367;BME280;45163;47.690;11.770;2024-03-29T07:53:08;91860.09;;;18.06;52.46
59367;BME280;45163;47.690;11.770;2024-03-29T07:55:39;91871.72;;;19.55;46.03
59367;BME280;45163;47.690;11.770;2024-03-29T07:58:05;91873.38;;;18.75;47.41
59367;BME280;45163;47.690;11.770;2024-03-29T08:00:32;91876.88;;;19.32;42.60
59367;BME280;45163;47.690;11.770;2024-03-29T08:03:01;91863.78;;;20.10;39.79
59367;BME280;45163;47.690;11.770;2024-03-29T08:05:28;91875.72;;;20.19;38.36
59367;BME280;45163;47.690;11.770;2024-03-29T08:07:54;91877.31;;;20.94;41.35
59367;BME280;45163;47.690;11.770;2024-03-29T08:10:21;91866.78;;;22.02;38.59
59367;BME280;45163;47.690;11.770;2024-03-29T08:12:47;91862.72;;;20.80;39.23
59367;BME280;45163;47.690;11.770;2024-03-29T08:15:13;91860.06;;;20.74;39.38
59367;BME280;45163;47.690;11.770;2024-03-29T08:17:39;91859.09;;;20.85;38.30
59367;BME280;45163;47.690;11.770;2024-03-29T08:20:05;91853.56;;;22.45;36.94
59367;BME280;45163;47.690;11.770;2024-03-29T08:22:31;91859.97;;;22.11;33.55
59367;BME280;45163;47.690;11.770;2024-03-29T08:25:00;91853.75;;;24.01;35.18
59367;BME280;45163;47.690;11.770;2024-03-29T08:27:27;91839.63;;;23.69;31.70
59367;BME280;45163;47.690;11.770;2024-03-29T08:29:53;91838.13;;;23.01;31.29
59367;BME280;45163;47.690;11.770;2024-03-29T08:32:20;91844.00;;;23.41;32.20
59367;BME280;45163;47.690;11.770;2024-03-29T08:34:46;91848.56;;;24.05;31.74
59367;BME280;45163;47.690;11.770;2024-03-29T08:37:12;91844.41;;;22.57;34.38
59367;BME280;45163;47.690;11.770;2024-03-29T08:39:38;91848.38;;;21.71;35.41
59367;BME280;45163;47.690;11.770;2024-03-29T08:42:04;91856.91;;;20.57;36.03
59367;BME280;45163;47.690;11.770;2024-03-29T08:44:32;91869.00;;;20.27;36.16
59367;BME280;45163;47.690;11.770;2024-03-29T08:46:58;91852.75;;;18.95;38.13
59367;BME280;45163;47.690;11.770;2024-03-29T08:49:27;91865.13;;;17.72;44.37
59367;BME280;45163;47.690;11.770;2024-03-29T08:51:53;91882.91;;;17.10;44.24
59367;BME280;45163;47.690;11.770;2024-03-29T08:54:19;91863.75;;;16.88;44.20
59367;BME280;45163;47.690;11.770;2024-03-29T08:56:47;91860.09;;;16.63;50.07
59367;BME280;45163;47.690;11.770;2024-03-29T08:59:13;91854.38;;;15.47;48.51
59367;BME280;45163;47.690;11.770;2024-03-29T09:01:45;91842.47;;;16.30;49.68
59367;BME280;45163;47.690;11.770;2024-03-29T09:04:11;91842.41;;;16.41;48.77
59367;BME280;45163;47.690;11.770;2024-03-29T09:06:38;91852.66;;;16.99;51.51
59367;BME280;45163;47.690;11.770;2024-03-29T09:09:05;91832.41;;;17.57;51.32
59367;BME280;45163;47.690;11.770;2024-03-29T09:11:32;91837.78;;;18.66;48.18
59367;BME280;45163;47.690;11.770;2024-03-29T09:13:58;91831.22;;;19.07;47.92
59367;BME280;45163;47.690;11.770;2024-03-29T09:16:25;91835.97;;;18.50;44.68
59367;BME280;45163;47.690;11.770;2024-03-29T09:18:51;91831.81;;;18.62;46.01
59367;BME280;45163;47.690;11.770;2024-03-29T09:21:18;91828.31;;;17.63;49.10
59367;BME280;45163;47.690;11.770;2024-03-29T09:23:45;91820.47;;;17.43;47.34
59367;BME280;45163;47.690;11.770;2024-03-29T09:26:11;91826.81;;;17.92;47.23
59367;BME280;45163;47.690;11.770;2024-03-29T09:28:40;91822.34;;;18.95;46.77
59367;BME280;45163;47.690;11.770;2024-03-29T09:31:06;91824.75;;;19.36;41.38
59367;BME280;45163;47.690;11.770;2024-03-29T09:33:32;91816.59;;;18.74;42.55
59367;BME280;45163;47.690;11.770;2024-03-29T09:35:58;91813.78;;;19.12;41.18
59367;BME280;45163;47.690;11.770;2024-03-29T09:38:25;91809.16;;;18.63;43.56
59367;BME280;45163;47.690;11.770;2024-03-29T09:43:25;91800.13;;;18.44;43.01
59367;BME280;45163;47.690;11.770;2024-03-29T09:45:53;91786.31;;;18.01;41.97
59367;BME280;45163;47.690;11.770;2024-03-29T09:48:21;91797.94;;;19.12;42.41
59367;BME280;45163;47.690;11.770;2024-03-29T09:50:48;91790.03;;;20.34;42.51
59367;BME280;45163;47.690;11.770;2024-03-29T09:53:18;91795.75;;;20.76;37.40
59367;BME280;45163;47.690;11.770;2024-03-29T09:55:46;91798.91;;;21.69;38.12
59367;BME280;45163;47.690;11.770;2024-03-29T09:58:12;91793.72;;;21.45;35.56
59367;BME280;45163;47.690;11.770;2024-03-29T10:00:38;91775.47;;;21.78;34.64
59367;BME280;45163;47.690;11.770;2024-03-29T10:03:05;91771.16;;;21.48;35.92
59367;BME280;45163;47.690;11.770;2024-03-29T10:05:33;91747.69;;;21.78;34.05
59367;BME280;45163;47.690;11.770;2024-03-29T10:08:00;91757.81;;;23.13;33.23
59367;BME280;45163;47.690;11.770;2024-03-29T10:10:32;91777.59;;;23.68;30.56
59367;BME280;45163;47.690;11.770;2024-03-29T10:12:58;91773.66;;;23.86;31.25
59367;BME280;45163;47.690;11.770;2024-03-29T10:15:24;91746.91;;;23.53;30.41
59367;BME280;45163;47.690;11.770;2024-03-29T10:17:54;91767.88;;;23.61;31.81
59367;BME280;45163;47.690;11.770;2024-03-29T10:20:20;91751.19;;;24.00;29.29
59367;BME280;45163;47.690;11.770;2024-03-29T10:22:48;91748.88;;;24.44;29.46
59367;BME280;45163;47.690;11.770;2024-03-29T10:25:14;91746.03;;;25.40;26.93
59367;BME280;45163;47.690;11.770;2024-03-29T10:27:40;91753.88;;;27.30;25.42
59367;BME280;45163;47.690;11.770;2024-03-29T10:30:08;91745.94;;;24.82;26.88
59367;BME280;45163;47.690;11.770;2024-03-29T10:32:40;91756.75;;;23.46;30.56
59367;BME280;45163;47.690;11.770;2024-03-29T10:35:06;91754.38;;;22.83;30.91
59367;BME280;45163;47.690;11.770;2024-03-29T10:37:33;91769.13;;;20.94;31.22
59367;BME280;45163;47.690;11.770;2024-03-29T10:40:08;91753.63;;;20.17;35.83
59367;BME280;45163;47.690;11.770;2024-03-29T10:42:36;91752.22;;;19.25;38.31
59367;BME280;45163;47.690;11.770;2024-03-29T10:45:05;91738.25;;;19.04;36.44
59367;BME280;45163;47.690;11.770;2024-03-29T10:47:32;91738.97;;;19.50;37.71
59367;BME280;45163;47.690;11.770;2024-03-29T10:49:59;91737.78;;;21.61;35.79
59367;BME280;45163;47.690;11.770;2024-03-29T10:52:25;91739.16;;;24.60;30.39
59367;BME280;45163;47.690;11.770;2024-03-29T10:54:52;91740.88;;;26.04;26.94
59367;BME280;45163;47.690;11.770;2024-03-29T10:57:25;91731.88;;;27.27;27.29
59367;BME280;45163;47.690;11.770;2024-03-29T11:00:00;91731.81;;;27.44;24.55
59367;BME280;45163;47.690;11.770;2024-03-29T11:05:47;91730.25;;;28.44;23.87
59367;BME280;45163;47.690;11.770;2024-03-29T11:08:17;91741.75;;;29.16;23.45
59367;BME280;45163;47.690;11.770;2024-03-29T11:10:47;91743.91;;;26.93;24.34
59367;BME280;45163;47.690;11.770;2024-03-29T11:13:41;91746.09;;;24.92;25.81
59367;BME280;45163;47.690;11.770;2024-03-29T11:16:11;91741.88;;;26.76;25.20
59367;BME280;45163;47.690;11.770;2024-03-29T11:18:37;91740.91;;;27.99;23.48
59367;BME280;45163;47.690;11.770;2024-03-29T11:21:04;91732.88;;;28.42;23.86
59367;BME280;45163;47.690;11.770;2024-03-29T11:23:32;91728.78;;;28.43;20.97
59367;BME280;45163;47.690;11.770;2024-03-29T11:25:59;91731.53;;;28.33;22.89
59367;BME280;45163;47.690;11.770;2024-03-29T11:33:44;91734.47;;;27.42;22.80
59367;BME280;45163;47.690;11.770;2024-03-29T11:38:57;91736.56;;;25.61;24.97
59367;BME280;45163;47.690;11.770;2024-03-29T11:41:27;91730.19;;;25.93;23.66
59367;BME280;45163;47.690;11.770;2024-03-29T11:43:56;91727.75;;;28.77;22.49
59367;BME280;45163;47.690;11.770;2024-03-29T11:46:23;91747.72;;;26.53;22.89
59367;BME280;45163;47.690;11.770;2024-03-29T11:48:49;91741.97;;;27.40;23.22
59367;BME280;45163;47.690;11.770;2024-03-29T11:51:19;91732.59;;;25.96;23.74
59367;BME280;45163;47.690;11.770;2024-03-29T11:53:48;91725.09;;;27.94;21.76
59367;BME280;45163;47.690;11.770;2024-03-29T11:56:16;91732.41;;;25.44;22.50
59367;BME280;45163;47.690;11.770;2024-03-29T11:58:42;91724.03;;;25.69;24.62
59367;BME280;45163;47.690;11.770;2024-03-29T12:01:08;91726.28;;;25.13;25.40
59367;BME280;45163;47.690;11.770;2024-03-29T12:03:41;91749.13;;;26.02;25.62
59367;BME280;45163;47.690;11.770;2024-03-29T12:06:08;91755.69;;;26.74;22.73
59367;BME280;45163;47.690;11.770;2024-03-29T12:08:40;91738.94;;;26.83;22.99
59367;BME280;45163;47.690;11.770;2024-03-29T12:11:08;91728.13;;;25.93;24.30
59367;BME280;45163;47.690;11.770;2024-03-29T12:13:34;91740.31;;;24.98;23.76
59367;BME280;45163;47.690;11.770;2024-03-29T12:16:00;91742.31;;;26.13;23.68
59367;BME280;45163;47.690;11.770;2024-03-29T12:18:27;91749.09;;;26.44;23.67
59367;BME280;45163;47.690;11.770;2024-03-29T12:20:59;91739.75;;;27.11;23.34
59367;BME280;45163;47.690;11.770;2024-03-29T12:23:25;91739.84;;;27.85;21.77
59367;BME280;45163;47.690;11.770;2024-03-29T12:25:53;91758.69;;;27.20;22.70
59367;BME280;45163;47.690;11.770;2024-03-29T12:28:21;91756.59;;;26.59;22.98
59367;BME280;45163;47.690;11.770;2024-03-29T12:30:48;91746.34;;;26.19;23.37
59367;BME280;45163;47.690;11.770;2024-03-29T12:33:17;91729.75;;;28.28;21.60
59367;BME280;45163;47.690;11.770;2024-03-29T12:35:50;91726.91;;;25.29;23.36
59367;BME280;45163;47.690;11.770;2024-03-29T12:38:19;91730.75;;;26.33;24.13
59367;BME280;45163;47.690;11.770;2024-03-29T12:40:47;91730.00;;;25.91;23.63
59367;BME280;45163;47.690;11.770;2024-03-29T12:43:23;91737.16;;;25.59;23.57
59367;BME280;45163;47.690;11.770;2024-03-29T12:45:50;91728.28;;;25.20;22.85
59367;BME280;45163;47.690;11.770;2024-03-29T12:48:21;91719.06;;;25.02;24.77
59367;BME280;45163;47.690;11.770;2024-03-29T12:50:49;91709.75;;;27.21;23.51
59367;BME280;45163;47.690;11.770;2024-03-29T12:53:15;91720.78;;;26.40;23.65
59367;BME280;45163;47.690;11.770;2024-03-29T12:55:47;91710.19;;;24.48;24.90
59367;BME280;45163;47.690;11.770;2024-03-29T12:58:15;91714.06;;;22.61;25.91
59367;BME280;45163;47.690;11.770;2024-03-29T13:00:44;91733.75;;;21.70;27.99
59367;BME280;45163;47.690;11.770;2024-03-29T13:03:10;91735.59;;;23.74;26.91
59367;BME280;45163;47.690;11.770;2024-03-29T13:05:37;91725.44;;;26.38;23.05